Toluca, IL (61369)

5:42 AM CDT on October 01, 2016 (GMT -0500)
White Bros. Farms | | Change Station

Elev 699 ft 40.95 °N, 89.27 °W | Updated 27 seconds ago

Overcast
Overcast
69.4 °F
Feels Like 69.4 °F
N
0.0
Wind Variable Wind from North

Today
High -- | Low -- °F
--% Chance of Precip.
Yesterday
High -- | Low -- °F
Precip. -- in
Pressure 30.01 in
Visibility 7.0 miles
Clouds Mostly Cloudy 800 ft
Mostly Cloudy 1400 ft
Overcast 3400 ft
Dew Point 60 °F
Humidity 73%
Rainfall 0.00 in
Snow Depth Not available.
6:53 AM 6:37 PM
New Moon, 0% visible
METAR KC75 011015Z AUTO 00000KT 7SM BKN008 BKN014 OVC034 16/15 A3001 RMK AO2 T01550148
Pressure 30.01 in
Visibility 7.0 miles
Clouds Mostly Cloudy 800 ft
Mostly Cloudy 1400 ft
Overcast 3400 ft
Dew Point 60 °F
Humidity 73%
Rainfall 0.00 in
Snow Depth Not available.
6:53 AM 6:37 PM
New Moon, 0% visible
METAR KC75 011015Z AUTO 00000KT 7SM BKN008 BKN014 OVC034 16/15 A3001 RMK AO2 T01550148

10-Day Weather Forecast

Almanac

Astronomy

Oct. 01, 2016 Rise Set
Actual Time
Civil Twilight
Nautical Twilight
Astronomical Twilight
Moon
Length of Visible Light
Length of Day
Tomorrow will be .
, % of the Moon is Illuminated

Today's Extremes

State Highs State Lows

Community

WunderPhotos

Upload Photos

1,942,908 photos uploaded!

WunderBlog® & News

Nearby

Air Quality

  Air Quality AQ Index Pollutant
Not available.

Snow Depth

Station Depth Elevation

Earthquake Activity

City Distance Mag. Time & Date
Minimum magnitude displayed is 2.5.

Coastal Water Temperatures

Place Temperature

Stations

Nearby Weather Stations

Station Location Temp. Windchill Dew Point Humidity Wind Precip. Elev Updated Type
                   

Watches & Warnings

There are currently no watches in effect.